WetterOnline ( https://www.wetteronline.de )

Wetter aktuell Itzehoe

Aktuelles Wetter: Itzehoe (26m)

6-stündlich | Neueste Meldungen
Ortszeit Temperatur Wetter
So, 09.05. 8:00 14.1° C fast wolkenlos
So, 09.05. 2:00 9.2° C Regen
Sa, 08.05. 20:00 11.5° C leichter Regen
Sa, 08.05. 14:00 13.1° C wolkig
Sa, 08.05. 8:00 6.0° C fast wolkenlos
Sa, 08.05. 2:00 5.3° C fast wolkenlos
Fr, 07.05. 20:00 7.4° C Regen
Fr, 07.05. 14:00 10.2° C wolkig
Ortszeit Temperatur Wetter
So, 09.05. 13:30 22.1° C wolkig
So, 09.05. 13:20 22.1° C wolkig
So, 09.05. 13:10 22.0° C wolkig
So, 09.05. 13:00 21.8° C fast wolkenlos
So, 09.05. 12:50 21.8° C fast wolkenlos
So, 09.05. 12:40 21.7° C -
So, 09.05. 12:30 21.5° C fast wolkenlos
So, 09.05. 12:00 20.8° C wolkig
So, 09.05. 11:30 19.8° C leicht bewölkt
So, 09.05. 11:00 19.3° C wolkig
So, 09.05. 10:30 18.2° C wolkig
Ortszeit Relative Feuchte Sichtweite
So, 09.05. 8:00 71% >70 km
So, 09.05. 2:00 90% 35 km
Sa, 08.05. 20:00 63% 40 km
Sa, 08.05. 14:00 46% 50 km
Sa, 08.05. 8:00 87% 21 km
Sa, 08.05. 2:00 84% 30 km
Fr, 07.05. 20:00 76% 7 km
Fr, 07.05. 14:00 59% >70 km
Ortszeit Relative Feuchte Sichtweite
So, 09.05. 13:30 48% >70 km
So, 09.05. 13:20 48% -
So, 09.05. 13:10 48% -
So, 09.05. 13:00 53% 35 km
So, 09.05. 12:50 53% -
So, 09.05. 12:40 54% -
So, 09.05. 12:30 55% 45 km
So, 09.05. 12:00 56% 55 km
So, 09.05. 11:30 57% 65 km
So, 09.05. 11:00 61% 45 km
So, 09.05. 10:30 64% >70 km
Ortszeit Niederschlagsmenge Niederschlagsart
So, 09.05. 8:00 8 l/m2 in 12 Std. -
So, 09.05. 2:00 8 l/m2 in 6 Std. Regen
Sa, 08.05. 20:00 0.1 l/m2 in 12 Std. Regen
Sa, 08.05. 14:00 0.0 l/m2 in 6 Std. -
Sa, 08.05. 8:00 0.2 l/m2 in 12 Std. -
Sa, 08.05. 2:00 0.2 l/m2 in 6 Std. Regen
Fr, 07.05. 20:00 0.1 l/m2 in 12 Std. Regen
Fr, 07.05. 14:00 0.1 l/m2 in 6 Std. Regen
Ortszeit Niederschlagsmenge Niederschlagsart
So, 09.05. 13:30 0.0 l/m2 in 1 Std. -
So, 09.05. 13:20 keine Meldung -
So, 09.05. 13:10 keine Meldung -
So, 09.05. 13:00 0.0 l/m2 in 1 Std. -
So, 09.05. 12:50 keine Meldung -
So, 09.05. 12:40 keine Meldung -
So, 09.05. 12:30 0.0 l/m2 in 1 Std. -
So, 09.05. 12:00 0.0 l/m2 in 1 Std. -
So, 09.05. 11:30 0.0 l/m2 in 1 Std. -
So, 09.05. 11:00 0.0 l/m2 in 1 Std. -
So, 09.05. 10:30 0.0 l/m2 in 1 Std. -
Ortszeit Stärke Spitze Richtung
km/h Bft. km/h Grad Sektor
So, 09.05. 8:00 7 2 25 140° SO
So, 09.05. 2:00 14 3 36 140° SO
Sa, 08.05. 20:00 7 2 32 180° S
Sa, 08.05. 14:00 9 2 22 180° S
Sa, 08.05. 8:00 9 2 17 230° SW
Sa, 08.05. 2:00 4 1 25 230° SW
Fr, 07.05. 20:00 11 2 40 270° W
Fr, 07.05. 14:00 14 3 43 290° W
Ortszeit Stärke Spitze Richtung
km/h Bft. km/h Grad Sektor
So, 09.05. 13:30 13 3 28 190° S
So, 09.05. 13:20 13 3 - 190° S
So, 09.05. 13:10 13 3 - 180° S
So, 09.05. 13:00 14 3 32 170° S
So, 09.05. 12:50 14 3 - 170° S
So, 09.05. 12:40 14 3 - 170° S
So, 09.05. 12:30 14 3 32 160° S
So, 09.05. 12:00 11 2 29 160° S
So, 09.05. 11:30 11 2 28 160° S
So, 09.05. 11:00 11 2 24 150° SO
So, 09.05. 10:30 13 3 24 160° S
Ortszeit Untergrenze Bedeckung Gattung
total tief tief mittel hoch
So, 09.05. 8:00 2100 m 1/8 1/8 - - -
So, 09.05. 2:00 1140 m 8/8 8/8 - - -
Sa, 08.05. 20:00 1320 m 7/8 7/8 - - -
Sa, 08.05. 14:00 1320 m 8/8 2/8 - - -
Sa, 08.05. 8:00 660 m 1/8 1/8 - - -
Sa, 08.05. 2:00 690 m 1/8 1/8 - - -
Fr, 07.05. 20:00 510 m 7/8 7/8 - - -
Fr, 07.05. 14:00 1080 m 6/8 6/8 - - -
Ortszeit Bedeckungsgrad in Achtel und Wolkenuntergrenze
So, 09.05. 13:30 7(9000m)
So, 09.05. 13:20 7(9000m)
So, 09.05. 13:10 7(9000m)
So, 09.05. 13:00 2(9000m)
So, 09.05. 12:50 2(9000m)
So, 09.05. 12:40 -
So, 09.05. 12:30 2(8400m)
So, 09.05. 12:00 2(1500m) 7(8400m)
So, 09.05. 11:30 4(8400m) 5(9000m)
So, 09.05. 11:00 6(9000m) 7(10500m)
So, 09.05. 10:30 5(8100m) 7(9000m)
Ortszeit Luftdruck NN (hPa) Tendenz (hPa in 3 Std.)
So, 09.05. 8:00 1006 - 0,1
So, 09.05. 2:00 1007 - 2,5
Sa, 08.05. 20:00 1012 - 1,3
Sa, 08.05. 14:00 1015 - 1,4
Sa, 08.05. 8:00 1017 + 0,6
Sa, 08.05. 2:00 1016 + 0,9
Fr, 07.05. 20:00 1014 + 1,2
Fr, 07.05. 14:00 1011 + 2,0
Ortszeit Luftdruck NN (hPa) Tendenz (hPa in 3 Std.)
So, 09.05. 13:30 1005 - 0,7
So, 09.05. 13:20 1005 keine Meldung
So, 09.05. 13:10 1005 keine Meldung
So, 09.05. 13:00 1005 - 1,1
So, 09.05. 12:50 1005 keine Meldung
So, 09.05. 12:40 1005 keine Meldung
So, 09.05. 12:30 1005 - 1,0
So, 09.05. 12:00 1005 - 0,6
So, 09.05. 11:30 1005 - 0,6
So, 09.05. 11:00 1006 - 0,3
So, 09.05. 10:30 1006 - 0,2
Ortszeit Schneehöhe (cm)
So, 09.05. 8:00 -
So, 09.05. 2:00 -
Sa, 08.05. 20:00 -
Sa, 08.05. 14:00 -
Sa, 08.05. 8:00 -
Sa, 08.05. 2:00 -
Fr, 07.05. 20:00 -
Fr, 07.05. 14:00 -
Ortszeit Schneehöhe (cm)
So, 09.05. 13:30 -
So, 09.05. 13:20 -
So, 09.05. 13:10 -
So, 09.05. 13:00 -
So, 09.05. 12:50 -
So, 09.05. 12:40 -
So, 09.05. 12:30 -
So, 09.05. 12:00 -
So, 09.05. 11:30 -
So, 09.05. 11:00 -
So, 09.05. 10:30 -
Link zu dieser Seite / Seite empfehlen

Das Wetter in ...